SLAS/ASC METAR and TAF weather

Enter ICAO airport designator
Station Type Date Time Source
SLAS METAR 2018/12/03 23:00 UTC NOAA

SLAS 032300Z 00000KT 9999 NSC 26/20 Q1009


Station Type Date Time Source
SLAS Decoded METAR 2018/12/03 23:00 UTC NOAA

Ascencion De Guarayos, Bolivia (SLAS) 15-43S 063-06W
Dec 03, 2018 - 06:00 PM EST / 2018.12.03 2300 UTC
Wind: Calm:0
Visibility: greater than 7 mile(s):0
Temperature: 78 F (26 C)
Dew Point: 68 F (20 C)
Relative Humidity: 69%
Pressure (altimeter): 29.80 in. Hg (1009 hPa)
ob: SLAS 032300Z 00000KT 9999 NSC 26/20 Q1009
cycle: 23

Station Type Date Time Source
SLAS TAF UTC NOAA

Error!


Example: see airport list